Time,TemperatureF,DewpointF,PressureIn,WindDirection,WindDirectionDegrees,WindSpeedMPH,WindSpeedGustMPH,Humidity,HourlyPrecipIn,Conditions,Clouds,dailyrainin,SolarRadiationWatts/m^2,SoftwareType,DateUTC
2013-09-22 00:00:00,47.0,45.4,29.96,NW,318,0.0,0.0,94,0.00,CLR,,0.00,0.0,WeatherDisplay:10.37,2013-09-22 05:00:00,
2013-09-22 00:05:00,47.0,45.4,29.96,NW,318,0.0,0.0,94,0.00,CLR,,0.00,0.0,WeatherDisplay:10.37,2013-09-22 05:05:00,
2013-09-22 00:10:00,46.8,45.2,29.96,NW,318,0.0,0.0,94,0.00,CLR,,0.00,0.0,WeatherDisplay:10.37,2013-09-22 05:10:00,
2013-09-22 00:15:00,46.8,45.2,29.96,NW,318,0.0,0.0,94,0.00,CLR,,0.00,0.0,WeatherDisplay:10.37,2013-09-22 05:15:00,
2013-09-22 00:20:00,46.7,45.1,29.96,NW,318,0.0,0.0,94,0.00,CLR,,0.00,0.0,WeatherDisplay:10.37,2013-09-22 05:20:00,
2013-09-22 00:25:00,46.4,44.8,29.96,NW,318,0.0,0.0,94,0.00,CLR,,0.00,0.0,WeatherDisplay:10.37,2013-09-22 05:25:00,
2013-09-22 00:30:00,46.2,44.6,29.97,NW,318,0.0,0.0,94,0.00,CLR,,0.00,0.0,WeatherDisplay:10.37,2013-09-22 05:30:00,
2013-09-22 00:35:00,46.1,44.5,29.97,NW,318,0.0,0.0,94,0.00,CLR,,0.00,0.0,WeatherDisplay:10.37,2013-09-22 05:35:00,
2013-09-22 00:40:00,46.0,44.6,29.97,NW,318,0.0,0.0,95,0.00,CLR,,0.00,0.0,WeatherDisplay:10.37,2013-09-22 05:40:00,
2013-09-22 00:45:00,45.8,44.4,29.97,NW,318,0.0,0.0,95,0.00,CLR,,0.00,0.0,WeatherDisplay:10.37,2013-09-22 05:45:00,
2013-09-22 00:50:00,45.7,44.4,29.97,NW,318,0.0,0.0,95,0.00,CLR,,0.00,0.0,WeatherDisplay:10.37,2013-09-22 05:50:00,
2013-09-22 00:55:00,45.5,44.2,29.97,NW,325,0.0,0.0,95,0.00,CLR,,0.00,0.0,WeatherDisplay:10.37,2013-09-22 05:55:00,
2013-09-22 01:00:00,45.4,44.1,29.98,NW,325,0.0,0.0,95,0.00,CLR,,0.00,0.0,WeatherDisplay:10.37,2013-09-22 06:00:00,
2013-09-22 01:05:00,45.2,43.9,29.98,NW,325,0.0,0.0,95,0.00,CLR,,0.00,0.0,WeatherDisplay:10.37,2013-09-22 06:05:00,
2013-09-22 01:10:00,44.9,43.6,29.98,ENE,73,0.0,0.0,95,0.00,CLR,,0.00,0.0,WeatherDisplay:10.37,2013-09-22 06:10:00,
2013-09-22 01:15:00,44.8,43.5,29.99,ENE,73,0.0,0.0,95,0.00,CLR,,0.00,0.0,WeatherDisplay:10.37,2013-09-22 06:15:00,
2013-09-22 01:20:00,44.6,43.3,29.99,ENE,72,0.0,0.0,95,0.00,CLR,,0.00,0.0,WeatherDisplay:10.37,2013-09-22 06:20:00,
2013-09-22 01:25:00,44.5,42.9,29.99,ENE,72,0.0,0.0,94,0.00,CLR,,0.00,0.0,WeatherDisplay:10.37,2013-09-22 06:25:00,
2013-09-22 01:30:00,44.3,42.7,29.99,ENE,72,0.0,0.0,94,0.00,CLR,,0.00,0.0,WeatherDisplay:10.37,2013-09-22 06:30:00,
2013-09-22 01:35:00,44.2,42.6,29.99,ENE,72,0.0,0.0,94,0.00,CLR,,0.00,0.0,WeatherDisplay:10.37,2013-09-22 06:35:00,
2013-09-22 01:40:00,44.1,42.5,29.99,ENE,72,0.0,0.0,94,0.00,CLR,,0.00,0.0,WeatherDisplay:10.37,2013-09-22 06:40:00,
2013-09-22 01:45:00,43.9,42.3,29.99,ENE,72,0.0,0.0,94,0.00,BKN,,0.00,0.0,WeatherDisplay:10.37,2013-09-22 06:45:00,
2013-09-22 01:50:00,43.8,42.2,29.99,ENE,72,0.0,0.0,94,0.00,BKN,,0.00,0.0,WeatherDisplay:10.37,2013-09-22 06:50:00,
2013-09-22 01:55:00,43.6,42.0,29.99,ENE,72,0.0,0.0,94,0.00,BKN,,0.00,0.0,WeatherDisplay:10.37,2013-09-22 06:55:00,
2013-09-22 02:00:00,43.5,41.9,29.99,ENE,72,0.0,0.0,94,0.00,BKN,,0.00,0.0,WeatherDisplay:10.37,2013-09-22 07:00:00,
2013-09-22 02:05:00,43.3,41.7,29.99,ENE,72,0.0,0.0,94,0.00,BKN,,0.00,0.0,WeatherDisplay:10.37,2013-09-22 07:05:00,
2013-09-22 02:10:00,43.2,41.6,29.99,ENE,72,0.0,0.0,94,0.00,BKN,,0.00,0.0,WeatherDisplay:10.37,2013-09-22 07:10:00,
2013-09-22 02:15:00,42.9,41.3,30.00,ENE,72,0.0,0.0,94,0.00,BKN,,0.00,0.0,WeatherDisplay:10.37,2013-09-22 07:15:00,
2013-09-22 02:20:00,42.9,41.3,30.00,ENE,72,0.0,0.0,94,0.00,BKN,,0.00,0.0,WeatherDisplay:10.37,2013-09-22 07:20:00,
2013-09-22 02:25:00,42.9,41.3,30.00,ENE,72,0.0,0.0,94,0.00,CLR,,0.00,0.0,WeatherDisplay:10.37,2013-09-22 07:25:00,
2013-09-22 02:30:00,42.8,41.2,30.00,ENE,72,0.0,0.0,94,0.00,CLR,,0.00,0.0,WeatherDisplay:10.37,2013-09-22 07:30:00,
2013-09-22 02:35:00,42.8,41.2,30.00,ENE,72,0.0,0.0,94,0.00,CLR,,0.00,0.0,WeatherDisplay:10.37,2013-09-22 07:35:00,
2013-09-22 02:40:00,42.6,41.0,30.00,ENE,72,0.0,0.0,94,0.00,CLR,,0.00,0.0,WeatherDisplay:10.37,2013-09-22 07:40:00,
2013-09-22 02:45:00,42.6,41.0,30.00,ENE,72,0.0,0.0,94,0.00,CLR,,0.00,0.0,WeatherDisplay:10.37,2013-09-22 07:45:00,
2013-09-22 02:50:00,42.5,40.9,30.00,ENE,72,0.0,0.0,94,0.00,CLR,,0.00,0.0,WeatherDisplay:10.37,2013-09-22 07:50:00,
2013-09-22 02:55:00,42.3,40.7,30.00,ENE,72,0.0,0.0,94,0.00,CLR,,0.00,0.0,WeatherDisplay:10.37,2013-09-22 07:55:00,
2013-09-22 03:00:00,42.2,40.6,30.00,ENE,72,0.0,0.0,94,0.00,CLR,,0.00,0.0,WeatherDisplay:10.37,2013-09-22 08:00:00,
2013-09-22 03:05:00,42.2,40.6,30.00,ENE,72,0.0,0.0,94,0.00,CLR,,0.00,0.0,WeatherDisplay:10.37,2013-09-22 08:05:00,
2013-09-22 03:10:00,42.1,40.5,30.00,ENE,72,0.0,0.0,94,0.00,CLR,,0.00,0.0,WeatherDisplay:10.37,2013-09-22 08:10:00,
2013-09-22 03:15:00,41.9,40.3,30.00,ENE,72,0.0,0.0,94,0.00,CLR,,0.00,0.0,WeatherDisplay:10.37,2013-09-22 08:15:00,
2013-09-22 03:20:00,41.8,40.2,30.00,ENE,72,0.0,0.0,94,0.00,CLR,,0.00,0.0,WeatherDisplay:10.37,2013-09-22 08:20:00,
2013-09-22 03:25:00,41.6,40.0,30.00,ENE,72,0.0,0.0,94,0.00,CLR,,0.00,0.0,WeatherDisplay:10.37,2013-09-22 08:25:00,
2013-09-22 03:30:00,41.6,40.0,30.00,ENE,72,0.0,0.0,94,0.00,CLR,,0.00,0.0,WeatherDisplay:10.37,2013-09-22 08:30:00,
2013-09-22 03:35:00,41.5,40.2,30.00,ENE,72,0.0,0.0,95,0.00,CLR,,0.00,0.0,WeatherDisplay:10.37,2013-09-22 08:35:00,
2013-09-22 03:40:00,41.5,40.2,30.00,ENE,72,0.0,0.0,95,0.00,CLR,,0.00,0.0,WeatherDisplay:10.37,2013-09-22 08:40:00,
2013-09-22 03:45:00,41.3,40.0,30.00,ENE,72,0.0,0.0,95,0.00,CLR,,0.00,0.0,WeatherDisplay:10.37,2013-09-22 08:45:00,
2013-09-22 03:50:00,41.3,40.0,30.00,ENE,72,0.0,0.0,95,0.00,CLR,,0.00,0.0,WeatherDisplay:10.37,2013-09-22 08:50:00,
2013-09-22 03:55:00,41.2,39.9,30.00,ENE,72,0.0,0.0,95,0.00,CLR,,0.00,0.0,WeatherDisplay:10.37,2013-09-22 08:55:00,
2013-09-22 04:00:00,41.2,39.9,30.01,ENE,72,0.0,0.0,95,0.00,CLR,,0.00,0.0,WeatherDisplay:10.37,2013-09-22 09:00:00,
2013-09-22 04:05:00,41.1,39.8,30.01,ENE,72,0.0,0.0,95,0.00,CLR,,0.00,0.0,WeatherDisplay:10.37,2013-09-22 09:05:00,
2013-09-22 04:10:00,41.1,39.8,30.01,ENE,72,0.0,0.0,95,0.00,CLR,,0.00,0.0,WeatherDisplay:10.37,2013-09-22 09:10:00,
2013-09-22 04:15:00,40.9,39.6,30.01,ENE,72,0.0,0.0,95,0.00,CLR,,0.00,0.0,WeatherDisplay:10.37,2013-09-22 09:15:00,
2013-09-22 04:20:00,40.9,39.6,30.01,ENE,72,0.0,0.0,95,0.00,CLR,,0.00,0.0,WeatherDisplay:10.37,2013-09-22 09:20:00,
2013-09-22 04:25:00,40.8,39.5,30.01,ENE,72,0.0,0.0,95,0.00,CLR,,0.00,0.0,WeatherDisplay:10.37,2013-09-22 09:25:00,
2013-09-22 04:30:00,40.8,39.5,30.01,ENE,72,0.0,0.0,95,0.00,CLR,,0.00,0.0,WeatherDisplay:10.37,2013-09-22 09:30:00,
2013-09-22 04:35:00,40.6,39.3,30.01,ENE,72,0.0,0.0,95,0.00,CLR,,0.00,0.0,WeatherDisplay:10.37,2013-09-22 09:35:00,
2013-09-22 04:40:00,40.6,39.3,30.01,ENE,72,0.0,0.0,95,0.00,CLR,,0.00,0.0,WeatherDisplay:10.37,2013-09-22 09:40:00,
2013-09-22 04:45:00,40.5,39.2,30.02,ENE,72,0.0,0.0,95,0.00,CLR,,0.00,0.0,WeatherDisplay:10.37,2013-09-22 09:45:00,
2013-09-22 04:50:00,40.6,39.3,30.02,ENE,72,0.0,0.0,95,0.00,CLR,,0.00,0.0,WeatherDisplay:10.37,2013-09-22 09:50:00,
2013-09-22 04:55:00,40.6,39.3,30.02,ENE,72,0.0,0.0,95,0.00,CLR,,0.00,0.0,WeatherDisplay:10.37,2013-09-22 09:55:00,
2013-09-22 05:00:00,40.6,39.3,30.02,ENE,72,0.0,0.0,95,0.00,CLR,,0.00,0.0,WeatherDisplay:10.37,2013-09-22 10:00:00,
2013-09-22 05:05:00,40.5,39.2,30.02,ENE,72,0.0,0.0,95,0.00,CLR,,0.00,0.0,WeatherDisplay:10.37,2013-09-22 10:05:00,
2013-09-22 05:10:00,40.5,39.2,30.02,ENE,72,0.0,0.0,95,0.00,CLR,,0.00,0.0,WeatherDisplay:10.37,2013-09-22 10:10:00,
2013-09-22 05:15:00,40.3,39.0,30.02,ENE,72,0.0,0.0,95,0.00,CLR,,0.00,0.0,WeatherDisplay:10.37,2013-09-22 10:15:00,
2013-09-22 05:20:00,40.2,38.9,30.02,ENE,72,0.0,0.0,95,0.00,CLR,,0.00,0.0,WeatherDisplay:10.37,2013-09-22 10:20:00,
2013-09-22 05:25:00,40.2,38.9,30.02,ENE,72,0.0,0.0,95,0.00,CLR,,0.00,0.0,WeatherDisplay:10.37,2013-09-22 10:25:00,
2013-09-22 05:30:00,40.1,38.8,30.02,ENE,72,0.0,0.0,95,0.00,CLR,,0.00,0.0,WeatherDisplay:10.37,2013-09-22 10:30:00,
2013-09-22 05:35:00,39.9,38.6,30.02,ENE,72,0.0,0.0,95,0.00,CLR,,0.00,0.0,WeatherDisplay:10.37,2013-09-22 10:35:00,
2013-09-22 05:40:00,39.9,38.6,30.02,ENE,72,0.0,0.0,95,0.00,CLR,,0.00,0.0,WeatherDisplay:10.37,2013-09-22 10:40:00,
2013-09-22 05:45:00,39.9,38.9,30.02,ENE,72,0.0,0.0,96,0.00,CLR,,0.00,0.0,WeatherDisplay:10.37,2013-09-22 10:45:00,
2013-09-22 05:50:00,39.8,38.8,30.02,ENE,72,0.0,0.0,96,0.00,CLR,,0.00,0.0,WeatherDisplay:10.37,2013-09-22 10:50:00,
2013-09-22 05:55:00,39.8,38.8,30.02,ENE,72,0.0,0.0,96,0.00,CLR,,0.00,0.0,WeatherDisplay:10.37,2013-09-22 10:55:00,
2013-09-22 06:00:00,39.6,38.6,30.03,ENE,72,0.0,0.0,96,0.00,CLR,,0.00,0.0,WeatherDisplay:10.37,2013-09-22 11:00:00,
2013-09-22 06:05:00,39.6,38.6,30.03,ENE,72,0.0,0.0,96,0.00,CLR,,0.00,0.0,WeatherDisplay:10.37,2013-09-22 11:05:00,
2013-09-22 06:10:00,39.5,38.5,30.03,ENE,72,0.0,0.0,96,0.00,CLR,,0.00,0.0,WeatherDisplay:10.37,2013-09-22 11:10:00,
2013-09-22 06:15:00,39.3,38.3,30.03,ENE,72,0.0,0.0,96,0.00,CLR,,0.00,0.0,WeatherDisplay:10.37,2013-09-22 11:15:00,
2013-09-22 06:20:00,39.3,38.3,30.03,ENE,72,0.0,0.0,96,0.00,CLR,,0.00,0.0,WeatherDisplay:10.37,2013-09-22 11:20:00,
2013-09-22 06:25:00,39.3,38.3,30.03,ENE,72,0.0,0.0,96,0.00,CLR,,0.00,0.0,WeatherDisplay:10.37,2013-09-22 11:25:00,
2013-09-22 06:30:00,39.3,38.3,30.04,ENE,72,0.0,0.0,96,0.00,CLR,,0.00,0.0,WeatherDisplay:10.37,2013-09-22 11:30:00,
2013-09-22 06:35:00,39.3,38.3,30.04,ENE,72,0.0,0.0,96,0.00,CLR,,0.00,0.0,WeatherDisplay:10.37,2013-09-22 11:35:00,
2013-09-22 06:40:00,39.2,38.2,30.04,ENE,72,0.0,0.0,96,0.00,CLR,,0.00,0.0,WeatherDisplay:10.37,2013-09-22 11:40:00,
2013-09-22 06:45:00,39.1,38.1,30.05,ENE,72,0.0,0.0,96,0.00,CLR,,0.00,0.0,WeatherDisplay:10.37,2013-09-22 11:45:00,
2013-09-22 06:50:00,39.1,38.1,30.05,ENE,72,0.0,0.0,96,0.00,CLR,,0.00,0.0,WeatherDisplay:10.37,2013-09-22 11:50:00,
2013-09-22 06:55:00,39.1,38.1,30.05,ENE,72,0.0,0.0,96,0.00,CLR,,0.00,5.0,WeatherDisplay:10.37,2013-09-22 11:55:00,
2013-09-22 07:00:00,39.1,38.1,30.05,ENE,72,0.0,0.0,96,0.00,CLR,,0.00,7.0,WeatherDisplay:10.37,2013-09-22 12:00:00,
2013-09-22 07:05:00,38.9,37.9,30.05,ENE,72,0.0,0.0,96,0.00,CLR,,0.00,9.0,WeatherDisplay:10.37,2013-09-22 12:05:00,
2013-09-22 07:10:00,38.9,37.9,30.05,ENE,72,0.0,0.0,96,0.00,CLR,,0.00,11.0,WeatherDisplay:10.37,2013-09-22 12:10:00,
2013-09-22 07:15:00,38.9,37.9,30.05,ENE,72,0.0,0.0,96,0.00,CLR,,0.00,51.0,WeatherDisplay:10.37,2013-09-22 12:15:00,
2013-09-22 07:20:00,39.1,38.1,30.05,ENE,72,0.0,0.0,96,0.00,CLR,,0.00,25.0,WeatherDisplay:10.37,2013-09-22 12:20:00,
2013-09-22 07:25:00,39.2,38.2,30.05,ENE,72,0.0,0.0,96,0.00,CLR,,0.00,19.0,WeatherDisplay:10.37,2013-09-22 12:25:00,
2013-09-22 07:30:00,39.5,38.5,30.06,ENE,72,0.0,0.0,96,0.00,CLR,,0.00,111.0,WeatherDisplay:10.37,2013-09-22 12:30:00,
2013-09-22 07:35:00,40.2,39.4,30.06,ENE,72,0.0,0.0,97,0.00,CLR,,0.00,128.0,WeatherDisplay:10.37,2013-09-22 12:35:00,
2013-09-22 07:40:00,40.6,39.8,30.06,ENE,72,0.0,0.0,97,0.00,CLR,,0.00,141.0,WeatherDisplay:10.37,2013-09-22 12:40:00,
2013-09-22 07:45:00,41.1,40.3,30.06,ENE,72,0.0,0.0,97,0.00,CLR,,0.00,153.0,WeatherDisplay:10.37,2013-09-22 12:45:00,
2013-09-22 07:50:00,41.5,40.7,30.06,ENE,72,0.0,0.0,97,0.00,CLR,,0.00,167.0,WeatherDisplay:10.37,2013-09-22 12:50:00,
2013-09-22 07:55:00,41.9,41.1,30.06,ENE,72,0.0,0.0,97,0.00,CLR,,0.00,181.0,WeatherDisplay:10.37,2013-09-22 12:55:00,
2013-09-22 08:00:00,42.1,41.0,30.06,ENE,72,0.0,0.0,96,0.00,CLR,,0.00,193.0,WeatherDisplay:10.37,2013-09-22 13:00:00,
2013-09-22 08:05:00,42.6,41.8,30.06,ENE,72,0.0,0.0,97,0.00,CLR,,0.00,207.0,WeatherDisplay:10.37,2013-09-22 13:05:00,
2013-09-22 08:10:00,43.2,42.4,30.06,ENE,72,0.0,0.0,97,0.00,CLR,,0.00,218.0,WeatherDisplay:10.37,2013-09-22 13:10:00,
2013-09-22 08:15:00,43.6,42.5,30.06,ENE,72,0.0,0.0,96,0.00,CLR,,0.00,234.0,WeatherDisplay:10.37,2013-09-22 13:15:00,
2013-09-22 08:20:00,43.8,42.7,30.06,ENE,72,0.0,0.0,96,0.00,CLR,,0.00,248.0,WeatherDisplay:10.37,2013-09-22 13:20:00,
2013-09-22 08:25:00,43.8,42.5,30.06,ENE,72,0.0,0.0,95,0.00,CLR,,0.00,262.0,WeatherDisplay:10.37,2013-09-22 13:25:00,
2013-09-22 08:30:00,44.3,43.0,30.07,ENE,72,0.0,0.0,95,0.00,CLR,,0.00,272.0,WeatherDisplay:10.37,2013-09-22 13:30:00,
2013-09-22 08:35:00,44.6,43.0,30.07,ESE,108,0.0,0.0,94,0.00,CLR,,0.00,288.0,WeatherDisplay:10.37,2013-09-22 13:35:00,
2013-09-22 08:40:00,44.9,42.7,30.07,East,82,0.1,1.2,92,0.00,CLR,,0.00,121.0,WeatherDisplay:10.37,2013-09-22 13:40:00,
2013-09-22 08:45:00,44.9,42.4,30.07,SE,136,0.0,0.0,91,0.00,CLR,,0.00,113.0,WeatherDisplay:10.37,2013-09-22 13:45:00,
2013-09-22 08:50:00,45.1,42.1,30.07,SE,137,0.0,1.2,89,0.00,CLR,,0.00,107.0,WeatherDisplay:10.37,2013-09-22 13:50:00,
2013-09-22 08:55:00,45.2,41.9,30.07,SE,137,0.0,0.0,88,0.00,CLR,,0.00,355.0,WeatherDisplay:10.37,2013-09-22 13:55:00,
2013-09-22 09:00:00,45.4,41.8,30.07,South,173,0.0,0.0,87,0.00,CLR,,0.00,378.0,WeatherDisplay:10.37,2013-09-22 14:00:00,
2013-09-22 09:05:00,45.8,41.9,30.07,East,80,0.0,0.0,86,0.00,CLR,,0.00,397.0,WeatherDisplay:10.37,2013-09-22 14:05:00,
2013-09-22 09:10:00,46.2,41.9,30.07,East,90,0.0,0.0,85,0.00,CLR,,0.00,413.0,WeatherDisplay:10.37,2013-09-22 14:10:00,
2013-09-22 09:15:00,46.5,41.9,30.08,East,90,0.0,1.1,84,0.00,CLR,,0.00,417.0,WeatherDisplay:10.37,2013-09-22 14:15:00,
2013-09-22 09:20:00,46.8,42.2,30.08,SSE,163,0.0,0.0,84,0.00,CLR,,0.00,445.0,WeatherDisplay:10.37,2013-09-22 14:20:00,
2013-09-22 09:25:00,47.1,42.2,30.08,East,93,0.0,0.0,83,0.00,CLR,,0.00,464.0,WeatherDisplay:10.37,2013-09-22 14:25:00,
2013-09-22 09:30:00,48.0,42.8,30.08,East,93,0.0,0.0,82,0.00,CLR,,0.00,476.0,WeatherDisplay:10.37,2013-09-22 14:30:00,
2013-09-22 09:35:00,48.5,42.6,30.08,South,169,0.0,0.0,80,0.00,CLR,,0.00,490.0,WeatherDisplay:10.37,2013-09-22 14:35:00,
2013-09-22 09:40:00,48.9,42.7,30.08,SE,139,0.0,0.0,79,0.00,CLR,,0.00,501.0,WeatherDisplay:10.37,2013-09-22 14:40:00,
2013-09-22 09:45:00,49.1,42.5,30.08,South,190,0.9,4.6,78,0.00,CLR,,0.00,513.0,WeatherDisplay:10.37,2013-09-22 14:45:00,
2013-09-22 09:50:00,49.4,42.8,30.08,East,80,0.0,4.6,78,0.00,CLR,,0.00,527.0,WeatherDisplay:10.37,2013-09-22 14:50:00,
2013-09-22 09:55:00,50.1,43.5,30.08,East,82,0.0,0.0,78,0.00,CLR,,0.00,536.0,WeatherDisplay:10.37,2013-09-22 14:55:00,
2013-09-22 10:00:00,50.7,43.4,30.08,East,82,0.0,0.0,76,0.00,CLR,,0.00,550.0,WeatherDisplay:10.37,2013-09-22 15:00:00,
2013-09-22 10:05:00,51.4,43.4,30.08,East,82,0.0,0.0,74,0.00,CLR,,0.00,561.0,WeatherDisplay:10.37,2013-09-22 15:05:00,
2013-09-22 10:10:00,52.0,43.6,30.08,East,82,0.0,1.2,73,0.00,CLR,,0.00,575.0,WeatherDisplay:10.37,2013-09-22 15:10:00,
2013-09-22 10:15:00,52.3,43.5,30.08,East,82,0.0,0.0,72,0.00,CLR,,0.00,585.0,WeatherDisplay:10.37,2013-09-22 15:15:00,
2013-09-22 10:20:00,52.5,44.4,30.08,South,187,0.0,1.2,74,0.00,CLR,,0.00,596.0,WeatherDisplay:10.37,2013-09-22 15:20:00,
2013-09-22 10:25:00,52.5,44.1,30.08,South,180,0.1,1.2,73,0.00,CLR,,0.00,606.0,WeatherDisplay:10.37,2013-09-22 15:25:00,
2013-09-22 10:30:00,53.1,43.9,30.08,SE,145,0.0,0.0,71,0.00,CLR,,0.00,617.0,WeatherDisplay:10.37,2013-09-22 15:30:00,
2013-09-22 10:35:00,53.2,43.3,30.08,SSE,157,0.0,0.0,69,0.00,CLR,,0.00,628.0,WeatherDisplay:10.37,2013-09-22 15:35:00,
2013-09-22 10:40:00,53.5,44.0,30.08,SSE,158,0.0,1.2,70,0.00,CLR,,0.00,636.0,WeatherDisplay:10.37,2013-09-22 15:40:00,
2013-09-22 10:45:00,54.2,44.6,30.08,South,170,0.0,0.0,70,0.00,CLR,,0.00,643.0,WeatherDisplay:10.37,2013-09-22 15:45:00,
2013-09-22 10:50:00,54.7,44.3,30.08,South,171,0.0,0.0,68,0.00,CLR,,0.00,652.0,WeatherDisplay:10.37,2013-09-22 15:50:00,
2013-09-22 10:55:00,55.3,45.3,30.08,NE,55,0.0,0.0,69,0.00,CLR,,0.00,664.0,WeatherDisplay:10.37,2013-09-22 15:55:00,
2013-09-22 11:00:00,55.7,44.5,30.07,ENE,57,0.0,0.0,66,0.00,CLR,,0.00,671.0,WeatherDisplay:10.37,2013-09-22 16:00:00,
2013-09-22 11:06:00,56.0,44.8,30.07,ENE,58,0.0,0.0,66,0.00,CLR,,0.00,680.0,WeatherDisplay:10.37,2013-09-22 16:06:00,
2013-09-22 11:11:00,56.5,44.5,30.07,NE,51,0.0,3.5,64,0.00,CLR,,0.00,689.0,WeatherDisplay:10.37,2013-09-22 16:11:00,
2013-09-22 11:16:00,56.3,44.7,30.07,SE,140,0.0,1.1,65,0.00,CLR,,0.00,694.0,WeatherDisplay:10.37,2013-09-22 16:16:00,
2013-09-22 11:21:00,56.5,44.0,30.07,South,189,1.9,5.8,63,0.01,RA,,0.01,701.0,WeatherDisplay:10.37,2013-09-22 16:21:00,
2013-09-22 11:26:00,56.2,44.2,30.07,SSW,192,0.1,1.2,64,0.01,RA,,0.01,707.0,WeatherDisplay:10.37,2013-09-22 16:26:00,
2013-09-22 11:31:00,56.3,44.7,30.06,South,188,0.0,0.0,65,0.01,CLR,,0.01,710.0,WeatherDisplay:10.37,2013-09-22 16:31:00,
2013-09-22 11:36:00,57.5,45.4,30.06,SSW,207,0.7,3.3,64,0.01,CLR,,0.01,719.0,WeatherDisplay:10.37,2013-09-22 16:36:00,
2013-09-22 11:41:00,57.8,44.4,30.06,SSW,207,0.0,0.0,61,0.01,CLR,,0.01,724.0,WeatherDisplay:10.37,2013-09-22 16:41:00,
2013-09-22 11:46:00,57.8,45.3,30.06,South,182,0.0,0.0,63,0.01,CLR,,0.01,729.0,WeatherDisplay:10.37,2013-09-22 16:46:00,
2013-09-22 11:51:00,57.8,44.9,30.06,South,182,0.0,4.6,62,0.01,CLR,,0.01,733.0,WeatherDisplay:10.37,2013-09-22 16:51:00,
2013-09-22 11:56:00,58.0,45.5,30.06,East,86,0.0,1.1,63,0.01,CLR,,0.01,737.0,WeatherDisplay:10.37,2013-09-22 16:56:00,
2013-09-22 12:01:00,58.0,45.5,30.06,SE,126,1.0,6.6,63,0.01,CLR,,0.01,738.0,WeatherDisplay:10.37,2013-09-22 17:01:00,
2013-09-22 12:06:00,59.2,45.8,30.06,SSE,152,2.4,5.8,61,0.01,CLR,,0.01,744.0,WeatherDisplay:10.37,2013-09-22 17:06:00,
2013-09-22 12:11:00,58.9,45.5,30.06,South,184,2.2,4.6,61,0.01,CLR,,0.01,745.0,WeatherDisplay:10.37,2013-09-22 17:11:00,
2013-09-22 12:16:00,58.3,45.3,30.06,South,184,0.0,6.9,62,0.01,CLR,,0.01,749.0,WeatherDisplay:10.37,2013-09-22 17:16:00,
2013-09-22 12:21:00,59.5,45.2,30.06,East,79,0.0,0.0,59,0.00,CLR,,0.01,752.0,WeatherDisplay:10.37,2013-09-22 17:21:00,
2013-09-22 12:26:00,60.2,46.3,30.06,East,100,0.0,0.0,60,0.00,CLR,,0.01,752.0,WeatherDisplay:10.37,2013-09-22 17:26:00,
2013-09-22 12:31:00,60.2,45.4,30.06,East,86,0.7,3.5,58,0.00,CLR,,0.01,754.0,WeatherDisplay:10.37,2013-09-22 17:31:00,
2013-09-22 12:36:00,60.2,45.8,30.06,East,90,0.0,0.0,59,0.00,CLR,,0.01,754.0,WeatherDisplay:10.37,2013-09-22 17:36:00,
2013-09-22 12:41:00,60.2,45.8,30.06,NNW,333,0.0,0.0,59,0.00,CLR,,0.01,756.0,WeatherDisplay:10.37,2013-09-22 17:41:00,
2013-09-22 12:46:00,60.4,46.0,30.06,SSW,208,0.0,1.2,59,0.00,CLR,,0.01,756.0,WeatherDisplay:10.37,2013-09-22 17:46:00,
2013-09-22 12:51:00,61.2,45.4,30.06,South,182,0.0,0.0,56,0.00,CLR,,0.01,756.0,WeatherDisplay:10.37,2013-09-22 17:51:00,
2013-09-22 12:56:00,61.2,45.8,30.06,SSE,153,0.0,0.0,57,0.00,CLR,,0.01,754.0,WeatherDisplay:10.37,2013-09-22 17:56:00,
2013-09-22 13:01:00,61.6,46.7,30.06,SSE,149,0.0,0.0,58,0.00,CLR,,0.01,752.0,WeatherDisplay:10.37,2013-09-22 18:01:00,
2013-09-22 13:06:00,62.1,45.7,30.06,ENE,65,0.0,1.1,55,0.00,CLR,,0.01,752.0,WeatherDisplay:10.37,2013-09-22 18:06:00,
2013-09-22 13:11:00,61.6,46.7,30.06,ENE,67,0.0,0.0,58,0.00,CLR,,0.01,751.0,WeatherDisplay:10.37,2013-09-22 18:11:00,
2013-09-22 13:16:00,63.2,47.7,30.05,ENE,67,0.0,0.0,57,0.00,CLR,,0.01,747.0,WeatherDisplay:10.37,2013-09-22 18:16:00,
2013-09-22 13:21:00,62.4,47.0,30.05,South,188,1.9,5.5,57,0.00,CLR,,0.01,745.0,WeatherDisplay:10.37,2013-09-22 18:21:00,
2013-09-22 13:26:00,62.6,46.7,30.05,ENE,69,0.0,1.2,56,0.00,CLR,,0.01,745.0,WeatherDisplay:10.37,2013-09-22 18:26:00,
2013-09-22 13:31:00,62.3,46.4,30.05,ENE,65,0.0,0.0,56,0.00,CLR,,0.01,737.0,WeatherDisplay:10.37,2013-09-22 18:31:00,
2013-09-22 13:36:00,62.4,46.0,30.05,South,173,0.4,4.6,55,0.00,CLR,,0.01,735.0,WeatherDisplay:10.37,2013-09-22 18:36:00,
2013-09-22 13:41:00,63.4,47.9,30.05,SSE,168,0.0,0.0,57,0.00,CLR,,0.01,729.0,WeatherDisplay:10.37,2013-09-22 18:41:00,
2013-09-22 13:46:00,63.4,46.0,30.04,NE,50,1.8,4.6,53,0.00,CLR,,0.01,728.0,WeatherDisplay:10.37,2013-09-22 18:46:00,
2013-09-22 13:51:00,63.2,46.3,30.04,ENE,71,0.0,0.0,54,0.00,CLR,,0.01,719.0,WeatherDisplay:10.37,2013-09-22 18:51:00,
2013-09-22 13:56:00,63.5,47.0,30.04,SSW,207,0.1,1.1,55,0.00,CLR,,0.01,714.0,WeatherDisplay:10.37,2013-09-22 18:56:00,
2013-09-22 14:01:00,63.4,45.5,30.04,SSW,207,0.0,0.0,52,0.00,CLR,,0.01,712.0,WeatherDisplay:10.37,2013-09-22 19:01:00,
2013-09-22 14:06:00,63.9,46.9,30.04,NNE,26,0.3,2.3,54,0.00,CLR,,0.01,707.0,WeatherDisplay:10.37,2013-09-22 19:06:00,
2013-09-22 14:11:00,63.5,46.1,30.04,South,174,0.0,0.0,53,0.00,CLR,,0.01,698.0,WeatherDisplay:10.37,2013-09-22 19:11:00,
2013-09-22 14:16:00,63.9,46.4,30.04,ENE,58,0.5,3.5,53,0.00,CLR,,0.01,693.0,WeatherDisplay:10.37,2013-09-22 19:16:00,
2013-09-22 14:21:00,63.4,46.0,30.04,East,83,0.5,2.3,53,0.00,CLR,,0.01,684.0,WeatherDisplay:10.37,2013-09-22 19:21:00,
2013-09-22 14:26:00,63.2,46.3,30.04,South,188,3.2,5.8,54,0.00,CLR,,0.01,677.0,WeatherDisplay:10.37,2013-09-22 19:26:00,
2013-09-22 14:31:00,64.8,46.8,30.03,South,181,0.1,1.2,52,0.00,CLR,,0.01,670.0,WeatherDisplay:10.37,2013-09-22 19:31:00,
2013-09-22 14:36:00,64.8,47.8,30.03,South,182,2.2,5.5,54,0.00,CLR,,0.01,663.0,WeatherDisplay:10.37,2013-09-22 19:36:00,
2013-09-22 14:41:00,63.7,46.7,30.03,South,186,0.0,5.8,54,0.00,CLR,,0.01,654.0,WeatherDisplay:10.37,2013-09-22 19:41:00,
2013-09-22 14:46:00,64.0,46.0,30.03,SSE,166,0.0,0.0,52,0.00,CLR,,0.01,645.0,WeatherDisplay:10.37,2013-09-22 19:46:00,
2013-09-22 14:51:00,65.2,46.1,30.03,East,97,1.6,6.9,50,0.00,CLR,,0.01,635.0,WeatherDisplay:10.37,2013-09-22 19:51:00,
2013-09-22 14:56:00,65.0,46.9,30.03,South,173,0.0,1.2,52,0.00,CLR,,0.01,628.0,WeatherDisplay:10.37,2013-09-22 19:56:00,
2013-09-22 15:01:00,64.8,46.8,30.03,NE,40,1.4,5.8,52,0.00,CLR,,0.01,615.0,WeatherDisplay:10.37,2013-09-22 20:01:00,
2013-09-22 15:06:00,65.0,47.4,30.03,ENE,69,0.0,0.0,53,0.00,CLR,,0.01,606.0,WeatherDisplay:10.37,2013-09-22 20:06:00,
2013-09-22 15:11:00,65.3,47.2,30.03,ENE,69,0.0,0.0,52,0.00,CLR,,0.01,599.0,WeatherDisplay:10.37,2013-09-22 20:11:00,
2013-09-22 15:16:00,65.5,47.9,30.03,South,185,0.0,1.2,53,0.00,CLR,,0.01,589.0,WeatherDisplay:10.37,2013-09-22 20:16:00,
2013-09-22 15:21:00,65.5,48.4,30.03,South,173,0.0,1.2,54,0.00,CLR,,0.01,580.0,WeatherDisplay:10.37,2013-09-22 20:21:00,
2013-09-22 15:26:00,65.3,46.7,30.03,South,186,0.0,1.1,51,0.00,CLR,,0.01,571.0,WeatherDisplay:10.37,2013-09-22 20:26:00,
2013-09-22 15:31:00,65.5,46.4,30.02,East,88,2.3,5.8,50,0.00,CLR,,0.01,573.0,WeatherDisplay:10.37,2013-09-22 20:31:00,
2013-09-22 15:36:00,65.6,47.0,30.02,NE,51,0.1,1.2,51,0.00,CLR,,0.01,557.0,WeatherDisplay:10.37,2013-09-22 20:36:00,
2013-09-22 15:41:00,66.6,47.9,30.02,NE,51,0.0,0.0,51,0.00,CLR,,0.01,545.0,WeatherDisplay:10.37,2013-09-22 20:41:00,
2013-09-22 15:46:00,67.1,48.9,30.01,SSW,195,0.0,1.1,52,0.00,CLR,,0.01,529.0,WeatherDisplay:10.37,2013-09-22 20:46:00,
2013-09-22 15:51:00,66.9,47.6,30.01,ENE,72,0.7,2.3,50,0.00,CLR,,0.01,515.0,WeatherDisplay:10.37,2013-09-22 20:51:00,
2013-09-22 15:56:00,66.6,46.8,30.01,East,98,0.0,0.0,49,0.00,CLR,,0.01,503.0,WeatherDisplay:10.37,2013-09-22 20:56:00,
2013-09-22 16:01:00,66.1,46.9,30.01,SSE,157,2.9,8.1,50,0.00,CLR,,0.01,497.0,WeatherDisplay:10.37,2013-09-22 21:01:00,
2013-09-22 16:06:00,65.8,47.2,30.01,ENE,74,0.9,5.8,51,0.00,CLR,,0.01,496.0,WeatherDisplay:10.37,2013-09-22 21:06:00,
2013-09-22 16:11:00,65.8,47.7,30.01,East,92,0.0,0.0,52,0.00,CLR,,0.01,489.0,WeatherDisplay:10.37,2013-09-22 21:11:00,
2013-09-22 16:16:00,66.1,47.4,30.01,ENE,78,0.0,0.0,51,0.00,CLR,,0.01,482.0,WeatherDisplay:10.37,2013-09-22 21:16:00,
2013-09-22 16:21:00,65.3,46.7,30.01,SSW,200,4.0,6.9,51,0.00,CLR,,0.01,468.0,WeatherDisplay:10.37,2013-09-22 21:21:00,
2013-09-22 16:26:00,65.6,46.5,30.01,SSE,156,0.0,0.0,50,0.00,CLR,,0.01,452.0,WeatherDisplay:10.37,2013-09-22 21:26:00,
2013-09-22 16:31:00,66.1,48.0,30.01,SSE,157,0.0,0.0,52,0.00,CLR,,0.01,438.0,WeatherDisplay:10.37,2013-09-22 21:31:00,
2013-09-22 16:36:00,66.8,47.0,30.01,East,96,0.0,0.0,49,0.00,CLR,,0.01,422.0,WeatherDisplay:10.37,2013-09-22 21:36:00,
2013-09-22 16:41:00,66.4,47.7,30.01,SSE,148,0.0,0.0,51,0.00,CLR,,0.01,399.0,WeatherDisplay:10.37,2013-09-22 21:41:00,
2013-09-22 16:46:00,66.3,47.6,30.01,South,173,0.1,1.2,51,0.00,CLR,,0.01,380.0,WeatherDisplay:10.37,2013-09-22 21:46:00,
2013-09-22 16:51:00,65.6,47.5,30.01,SSE,150,0.0,5.8,52,0.00,CLR,,0.01,355.0,WeatherDisplay:10.37,2013-09-22 21:51:00,
2013-09-22 16:56:00,65.8,47.2,30.01,South,180,0.7,3.3,51,0.00,CLR,,0.01,330.0,WeatherDisplay:10.37,2013-09-22 21:56:00,
2013-09-22 17:01:00,65.8,47.2,30.00,SSE,168,0.0,1.1,51,0.00,CLR,,0.01,318.0,WeatherDisplay:10.37,2013-09-22 22:01:00,
2013-09-22 17:06:00,64.8,46.8,30.00,South,188,0.0,1.1,52,0.00,CLR,,0.01,304.0,WeatherDisplay:10.37,2013-09-22 22:06:00,
2013-09-22 17:11:00,64.7,47.2,30.00,South,171,0.5,4.6,53,0.00,CLR,,0.01,283.0,WeatherDisplay:10.37,2013-09-22 22:11:00,
2013-09-22 17:16:00,64.5,47.5,30.00,SSW,193,0.5,6.6,54,0.00,CLR,,0.01,267.0,WeatherDisplay:10.37,2013-09-22 22:16:00,
2013-09-22 17:21:00,64.3,46.8,30.00,South,169,0.0,0.0,53,0.00,CLR,,0.01,250.0,WeatherDisplay:10.37,2013-09-22 22:21:00,
2013-09-22 17:26:00,64.3,46.8,30.00,East,80,0.2,3.5,53,0.00,CLR,,0.01,47.0,WeatherDisplay:10.37,2013-09-22 22:26:00,
2013-09-22 17:31:00,64.2,47.2,30.01,ENE,76,0.0,0.0,54,0.00,CLR,,0.01,32.0,WeatherDisplay:10.37,2013-09-22 22:31:00,
2013-09-22 17:36:00,63.9,47.9,30.01,South,169,0.0,0.0,56,0.00,CLR,,0.01,35.0,WeatherDisplay:10.37,2013-09-22 22:36:00,
2013-09-22 17:41:00,63.7,47.2,30.01,SSE,153,0.0,0.0,55,0.00,CLR,,0.01,51.0,WeatherDisplay:10.37,2013-09-22 22:41:00,
2013-09-22 17:46:00,63.4,46.9,30.00,SSE,156,0.0,0.0,55,0.00,CLR,,0.01,33.0,WeatherDisplay:10.37,2013-09-22 22:46:00,
2013-09-22 17:51:00,63.2,47.2,30.00,SSE,148,0.0,0.0,56,0.00,CLR,,0.01,33.0,WeatherDisplay:10.37,2013-09-22 22:51:00,
2013-09-22 17:56:00,62.9,47.0,30.00,SSE,157,0.0,6.9,56,0.00,CLR,,0.01,28.0,WeatherDisplay:10.37,2013-09-22 22:56:00,
2013-09-22 18:01:00,62.6,47.1,30.00,East,80,0.0,0.0,57,0.00,CLR,,0.01,25.0,WeatherDisplay:10.37,2013-09-22 23:01:00,
2013-09-22 18:06:00,62.4,47.4,30.00,South,169,0.0,0.0,58,0.00,CLR,,0.01,23.0,WeatherDisplay:10.37,2013-09-22 23:06:00,
2013-09-22 18:11:00,62.1,47.1,30.00,SSE,162,0.0,0.0,58,0.00,CLR,,0.01,21.0,WeatherDisplay:10.37,2013-09-22 23:11:00,
2013-09-22 18:16:00,62.0,47.5,30.00,South,186,0.0,1.2,59,0.00,CLR,,0.01,19.0,WeatherDisplay:10.37,2013-09-22 23:16:00,
2013-09-22 18:21:00,61.6,47.1,30.00,NNE,29,0.0,0.0,59,0.00,CLR,,0.01,18.0,WeatherDisplay:10.37,2013-09-22 23:21:00,
2013-09-22 18:27:00,61.4,46.9,30.00,NNE,30,0.0,1.0,59,0.00,CLR,,0.01,16.0,WeatherDisplay:10.37,2013-09-22 23:27:00,
2013-09-22 18:32:00,61.2,46.8,30.01,SSE,148,0.0,0.0,59,0.00,CLR,,0.01,14.0,WeatherDisplay:10.37,2013-09-22 23:32:00,
2013-09-22 18:37:00,61.0,47.0,30.01,SSE,148,0.0,0.0,60,0.00,CLR,,0.01,12.0,WeatherDisplay:10.37,2013-09-22 23:37:00,
2013-09-22 18:42:00,60.5,47.0,30.01,ESE,114,0.0,0.0,61,0.00,CLR,,0.01,9.0,WeatherDisplay:10.37,2013-09-22 23:42:00,
2013-09-22 18:47:00,60.4,47.3,30.00,ESE,115,0.0,0.0,62,0.00,CLR,,0.01,7.0,WeatherDisplay:10.37,2013-09-22 23:47:00,
2013-09-22 18:52:00,60.1,47.0,30.00,ESE,115,0.0,0.0,62,0.00,CLR,,0.01,5.0,WeatherDisplay:10.37,2013-09-22 23:52:00,
2013-09-22 18:57:00,59.7,47.1,30.00,ESE,116,0.0,0.0,63,0.00,CLR,,0.01,0.0,WeatherDisplay:10.37,2013-09-22 23:57:00,
2013-09-22 19:02:00,59.3,47.1,30.01,ESE,117,0.0,0.0,64,0.00,CLR,,0.01,0.0,WeatherDisplay:10.37,2013-09-23 00:02:00,
2013-09-22 19:07:00,59.1,47.7,30.01,East,95,0.0,1.0,66,0.00,CLR,,0.01,0.0,WeatherDisplay:10.37,2013-09-23 00:07:00,
2013-09-22 19:12:00,58.6,47.3,30.01,East,86,0.1,1.2,66,0.00,CLR,,0.01,0.0,WeatherDisplay:10.37,2013-09-23 00:12:00,
2013-09-22 19:17:00,58.1,47.2,30.01,East,86,0.0,2.0,67,0.00,CLR,,0.01,0.0,WeatherDisplay:10.37,2013-09-23 00:17:00,
2013-09-22 19:22:00,57.8,46.9,30.01,East,81,0.0,0.0,67,0.00,CLR,,0.01,0.0,WeatherDisplay:10.37,2013-09-23 00:22:00,
2013-09-22 19:27:00,57.4,46.9,30.01,ENE,78,0.0,1.0,68,0.00,CLR,,0.01,0.0,WeatherDisplay:10.37,2013-09-23 00:27:00,
2013-09-22 19:32:00,57.0,46.5,30.01,ENE,72,0.0,0.0,68,0.00,CLR,,0.01,0.0,WeatherDisplay:10.37,2013-09-23 00:32:00,
2013-09-22 19:37:00,56.7,46.3,30.01,NNE,18,0.0,1.0,68,0.00,CLR,,0.01,0.0,WeatherDisplay:10.37,2013-09-23 00:37:00,
2013-09-22 19:42:00,56.5,46.4,30.01,NNW,340,0.0,0.0,69,0.00,CLR,,0.01,0.0,WeatherDisplay:10.37,2013-09-23 00:42:00,
2013-09-22 19:47:00,56.2,46.2,30.01,NE,36,0.0,0.0,69,0.00,CLR,,0.01,0.0,WeatherDisplay:10.37,2013-09-23 00:47:00,
2013-09-22 19:52:00,55.9,46.3,30.01,ESE,103,0.0,3.5,70,0.00,CLR,,0.01,0.0,WeatherDisplay:10.37,2013-09-23 00:52:00,
2013-09-22 19:57:00,55.6,46.0,30.01,East,84,0.0,1.0,70,0.00,CLR,,0.01,0.0,WeatherDisplay:10.37,2013-09-23 00:57:00,
2013-09-22 20:02:00,55.3,46.1,30.02,East,91,0.0,0.0,71,0.00,CLR,,0.01,0.0,WeatherDisplay:10.37,2013-09-23 01:02:00,
2013-09-22 20:07:00,55.0,45.8,30.02,East,92,0.0,0.0,71,0.00,CLR,,0.01,0.0,WeatherDisplay:10.37,2013-09-23 01:07:00,
2013-09-22 20:12:00,54.7,45.8,30.02,East,95,0.0,0.0,72,0.00,CLR,,0.01,0.0,WeatherDisplay:10.37,2013-09-23 01:12:00,
2013-09-22 20:17:00,54.4,45.6,30.02,East,83,0.0,2.3,72,0.00,CLR,,0.01,0.0,WeatherDisplay:10.37,2013-09-23 01:17:00,
2013-09-22 20:22:00,54.2,45.7,30.02,East,86,0.0,0.0,73,0.00,CLR,,0.01,0.0,WeatherDisplay:10.37,2013-09-23 01:22:00,
2013-09-22 20:27:00,53.9,45.4,30.02,East,86,0.0,0.0,73,0.00,CLR,,0.01,0.0,WeatherDisplay:10.37,2013-09-23 01:27:00,
2013-09-22 20:32:00,53.8,45.3,30.03,East,86,0.0,0.0,73,0.00,CLR,,0.01,0.0,WeatherDisplay:10.37,2013-09-23 01:32:00,
2013-09-22 20:37:00,53.6,45.2,30.03,East,89,0.0,0.0,73,0.00,CLR,,0.01,0.0,WeatherDisplay:10.37,2013-09-23 01:37:00,
2013-09-22 20:42:00,53.3,44.9,30.03,ENE,76,0.0,0.0,73,0.00,CLR,,0.01,0.0,WeatherDisplay:10.37,2013-09-23 01:42:00,
2013-09-22 20:47:00,53.2,44.8,30.03,ENE,76,0.1,1.2,73,0.00,CLR,,0.01,0.0,WeatherDisplay:10.37,2013-09-23 01:47:00,
2013-09-22 20:52:00,52.9,44.8,30.03,ENE,76,0.0,0.0,74,0.00,CLR,,0.01,0.0,WeatherDisplay:10.37,2013-09-23 01:52:00,
2013-09-22 20:57:00,52.6,44.9,30.03,ENE,76,0.0,0.0,75,0.00,CLR,,0.01,0.0,WeatherDisplay:10.37,2013-09-23 01:57:00,
2013-09-22 21:02:00,52.3,44.6,30.03,ENE,76,0.0,0.0,75,0.00,CLR,,0.01,0.0,WeatherDisplay:10.37,2013-09-23 02:02:00,
2013-09-22 21:07:00,52.0,44.7,30.03,ENE,76,0.0,0.0,76,0.00,CLR,,0.01,0.0,WeatherDisplay:10.37,2013-09-23 02:07:00,
2013-09-22 21:12:00,51.9,44.6,30.03,ENE,76,0.0,0.0,76,0.00,CLR,,0.01,0.0,WeatherDisplay:10.37,2013-09-23 02:12:00,
2013-09-22 21:17:00,51.6,44.3,30.04,ENE,76,0.0,0.0,76,0.00,CLR,,0.01,0.0,WeatherDisplay:10.37,2013-09-23 02:17:00,
2013-09-22 21:22:00,51.3,44.0,30.04,ENE,76,0.0,0.0,76,0.00,CLR,,0.01,0.0,WeatherDisplay:10.37,2013-09-23 02:22:00,
2013-09-22 21:28:00,51.1,44.1,30.04,ENE,76,0.0,0.0,77,0.00,CLR,,0.01,0.0,WeatherDisplay:10.37,2013-09-23 02:28:00,
2013-09-22 21:33:00,51.0,44.0,30.04,ENE,76,0.0,0.0,77,0.00,CLR,,0.01,0.0,WeatherDisplay:10.37,2013-09-23 02:33:00,
2013-09-22 21:38:00,50.7,44.1,30.04,ENE,76,0.0,1.2,78,0.00,CLR,,0.01,0.0,WeatherDisplay:10.37,2013-09-23 02:38:00,
2013-09-22 21:43:00,50.5,43.9,30.04,ENE,76,0.0,0.0,78,0.00,CLR,,0.01,0.0,WeatherDisplay:10.37,2013-09-23 02:43:00,
2013-09-22 21:48:00,50.4,43.8,30.03,ENE,76,0.0,0.0,78,0.00,CLR,,0.01,0.0,WeatherDisplay:10.37,2013-09-23 02:48:00,
2013-09-22 21:53:00,50.2,43.9,30.03,ENE,76,0.0,1.2,79,0.00,CLR,,0.01,0.0,WeatherDisplay:10.37,2013-09-23 02:53:00,
2013-09-22 21:58:00,50.1,43.8,30.03,ENE,76,0.0,0.0,79,0.00,CLR,,0.01,0.0,WeatherDisplay:10.37,2013-09-23 02:58:00,
2013-09-22 22:03:00,49.9,43.6,30.04,ENE,76,0.0,0.0,79,0.00,CLR,,0.01,0.0,WeatherDisplay:10.37,2013-09-23 03:03:00,
2013-09-22 22:08:00,49.8,43.5,30.04,ENE,76,0.0,0.0,79,0.00,CLR,,0.01,0.0,WeatherDisplay:10.37,2013-09-23 03:08:00,
2013-09-22 22:13:00,49.6,43.4,30.04,ENE,76,0.0,0.0,79,0.00,CLR,,0.01,0.0,WeatherDisplay:10.37,2013-09-23 03:13:00,
2013-09-22 22:18:00,49.5,43.6,30.03,ENE,76,0.0,0.0,80,0.00,CLR,,0.01,0.0,WeatherDisplay:10.37,2013-09-23 03:18:00,
2013-09-22 22:23:00,49.4,43.5,30.03,ENE,76,0.0,0.0,80,0.00,CLR,,0.01,0.0,WeatherDisplay:10.37,2013-09-23 03:23:00,
2013-09-22 22:28:00,49.2,43.6,30.03,ENE,76,0.0,0.0,81,0.00,CLR,,0.01,0.0,WeatherDisplay:10.37,2013-09-23 03:28:00,
2013-09-22 22:33:00,49.1,43.5,30.04,ENE,76,0.0,0.0,81,0.00,CLR,,0.01,0.0,WeatherDisplay:10.37,2013-09-23 03:33:00,
2013-09-22 22:38:00,48.9,43.3,30.04,ENE,76,0.0,0.0,81,0.00,CLR,,0.01,0.0,WeatherDisplay:10.37,2013-09-23 03:38:00,
2013-09-22 22:43:00,48.9,43.6,30.04,ENE,76,0.0,0.0,82,0.00,CLR,,0.01,0.0,WeatherDisplay:10.37,2013-09-23 03:43:00,
2013-09-22 22:48:00,48.8,43.5,30.04,ENE,76,0.0,0.0,82,0.00,CLR,,0.01,0.0,WeatherDisplay:10.37,2013-09-23 03:48:00,
2013-09-22 22:53:00,48.6,43.4,30.04,ENE,76,0.0,0.0,82,0.00,CLR,,0.01,0.0,WeatherDisplay:10.37,2013-09-23 03:53:00,
2013-09-22 22:58:00,48.6,43.7,30.04,East,82,0.1,1.1,83,0.00,CLR,,0.01,0.0,WeatherDisplay:10.37,2013-09-23 03:58:00,
2013-09-22 23:01:00,48.5,43.6,30.04,East,82,0.0,0.0,83,0.00,CLR,,0.01,0.0,WeatherDisplay:10.37,2013-09-23 04:01:00,
2013-09-22 23:02:00,48.5,43.6,30.04,East,82,0.0,0.0,83,0.00,CLR,,0.01,0.0,WeatherDisplay:10.37,2013-09-23 04:02:00,
2013-09-22 23:07:00,48.6,43.7,30.04,East,87,0.0,0.0,83,0.00,CLR,,0.01,0.0,WeatherDisplay:10.37,2013-09-23 04:07:00,
2013-09-22 23:12:00,48.6,43.7,30.04,East,88,0.1,1.1,83,0.00,CLR,,0.01,0.0,WeatherDisplay:10.37,2013-09-23 04:12:00,
2013-09-22 23:17:00,48.6,44.0,30.04,ENE,71,0.0,0.0,84,0.00,CLR,,0.01,0.0,WeatherDisplay:10.37,2013-09-23 04:17:00,
2013-09-22 23:22:00,48.6,44.0,30.04,ENE,72,0.0,0.0,84,0.00,CLR,,0.01,0.0,WeatherDisplay:10.37,2013-09-23 04:22:00,
2013-09-22 23:27:00,48.6,44.0,30.04,ENE,72,0.0,0.0,84,0.00,CLR,,0.01,0.0,WeatherDisplay:10.37,2013-09-23 04:27:00,
2013-09-22 23:32:00,48.5,43.9,30.04,East,79,0.0,0.0,84,0.00,CLR,,0.01,0.0,WeatherDisplay:10.37,2013-09-23 04:32:00,
2013-09-22 23:37:00,48.5,44.2,30.04,ENE,70,0.0,0.0,85,0.00,CLR,,0.01,0.0,WeatherDisplay:10.37,2013-09-23 04:37:00,
2013-09-22 23:42:00,48.3,44.0,30.04,ENE,70,0.0,0.0,85,0.00,CLR,,0.01,0.0,WeatherDisplay:10.37,2013-09-23 04:42:00,
2013-09-22 23:47:00,48.2,43.9,30.04,ENE,70,0.0,0.0,85,0.00,CLR,,0.01,0.0,WeatherDisplay:10.37,2013-09-23 04:47:00,
2013-09-22 23:52:00,48.2,44.2,30.04,ENE,71,0.0,0.0,86,0.00,CLR,,0.01,0.0,WeatherDisplay:10.37,2013-09-23 04:52:00,
2013-09-22 23:57:00,48.0,44.0,30.04,ENE,71,0.0,0.0,86,0.00,CLR,,0.01,0.0,WeatherDisplay:10.37,2013-09-23 04:57:00,